sensor_id;sensor_type;location;lat;lon;timestamp;pressure;altitude;pressure_sealevel;temperature;humidity
10482;BME280;5288;42.334;23.876;2022-08-01T00:01:17;56128.50;;;-140.56;78.79
10482;BME280;5288;42.334;23.876;2022-08-01T00:03:45;56140.34;;;-140.56;79.68
10482;BME280;5288;42.334;23.876;2022-08-01T00:06:12;56146.28;;;-140.56;79.81
10482;BME280;5288;42.334;23.876;2022-08-01T00:08:40;56168.00;;;-140.56;80.03
10482;BME280;5288;42.334;23.876;2022-08-01T00:11:09;56152.22;;;-140.56;79.76
10482;BME280;5288;42.334;23.876;2022-08-01T00:13:36;56160.13;;;-140.56;79.83
10482;BME280;5288;42.334;23.876;2022-08-01T00:16:04;56187.78;;;-140.56;80.21
10482;BME280;5288;42.334;23.876;2022-08-01T00:18:31;56148.25;;;-140.56;80.38
10482;BME280;5288;42.334;23.876;2022-08-01T00:20:58;56173.94;;;-140.56;80.79
10482;BME280;5288;42.334;23.876;2022-08-01T00:23:25;56162.09;;;-140.56;80.59
10482;BME280;5288;42.334;23.876;2022-08-01T00:25:52;56177.91;;;-140.56;80.45
10482;BME280;5288;42.334;23.876;2022-08-01T00:28:21;56148.25;;;-140.56;79.87
10482;BME280;5288;42.334;23.876;2022-08-01T00:30:48;56164.06;;;-140.56;79.87
10482;BME280;5288;42.334;23.876;2022-08-01T00:33:15;56189.75;;;-140.56;79.66
10482;BME280;5288;42.334;23.876;2022-08-01T00:35:42;56142.31;;;-140.56;79.34
10482;BME280;5288;42.334;23.876;2022-08-01T00:38:09;56166.03;;;-140.56;79.30
10482;BME280;5288;42.334;23.876;2022-08-01T00:40:36;56160.13;;;-140.56;78.45
10482;BME280;5288;42.334;23.876;2022-08-01T00:43:03;56144.31;;;-140.56;78.33
10482;BME280;5288;42.334;23.876;2022-08-01T00:45:32;56150.22;;;-140.56;78.12
10482;BME280;5288;42.334;23.876;2022-08-01T00:47:59;56177.91;;;-140.56;78.06
10482;BME280;5288;42.334;23.876;2022-08-01T00:50:26;56168.00;;;-140.56;78.01
10482;BME280;5288;42.334;23.876;2022-08-01T00:52:54;56175.91;;;-140.56;78.00
10482;BME280;5288;42.334;23.876;2022-08-01T00:55:22;56175.91;;;-140.56;78.07
10482;BME280;5288;42.334;23.876;2022-08-01T00:57:50;56160.13;;;-140.56;78.29
10482;BME280;5288;42.334;23.876;2022-08-01T01:00:17;56173.94;;;-140.56;78.43
10482;BME280;5288;42.334;23.876;2022-08-01T01:02:46;56164.06;;;-140.56;78.48
10482;BME280;5288;42.334;23.876;2022-08-01T01:05:13;56166.03;;;-140.56;78.99
10482;BME280;5288;42.334;23.876;2022-08-01T01:07:45;56146.28;;;-140.56;78.59
10482;BME280;5288;42.334;23.876;2022-08-01T01:10:19;56173.94;;;-140.56;78.94
10482;BME280;5288;42.334;23.876;2022-08-01T01:12:52;56166.03;;;-140.56;78.89
10482;BME280;5288;42.334;23.876;2022-08-01T01:15:25;56156.16;;;-140.56;78.73
10482;BME280;5288;42.334;23.876;2022-08-01T01:17:58;56132.44;;;-140.56;78.77
10482;BME280;5288;42.334;23.876;2022-08-01T01:20:30;56183.81;;;-140.56;78.72
10482;BME280;5288;42.334;23.876;2022-08-01T01:23:12;56162.09;;;-140.56;79.15
10482;BME280;5288;42.334;23.876;2022-08-01T01:25:54;56185.81;;;-140.56;79.46
10482;BME280;5288;42.334;23.876;2022-08-01T01:28:34;56136.41;;;-140.56;79.46
10482;BME280;5288;42.334;23.876;2022-08-01T01:31:06;56166.03;;;-140.56;79.21
10482;BME280;5288;42.334;23.876;2022-08-01T01:33:35;56168.00;;;-140.56;79.16
10482;BME280;5288;42.334;23.876;2022-08-01T01:36:05;56179.88;;;-140.56;79.02
10482;BME280;5288;42.334;23.876;2022-08-01T01:38:37;56171.97;;;-140.56;79.36
10482;BME280;5288;42.334;23.876;2022-08-01T01:41:08;56197.66;;;-140.56;79.04
10482;BME280;5288;42.334;23.876;2022-08-01T01:43:37;56177.91;;;-140.56;79.19
10482;BME280;5288;42.334;23.876;2022-08-01T01:46:09;56199.63;;;-140.56;78.82
10482;BME280;5288;42.334;23.876;2022-08-01T01:48:38;56193.72;;;-140.56;78.56
10482;BME280;5288;42.334;23.876;2022-08-01T01:51:07;56175.91;;;-140.56;78.19
10482;BME280;5288;42.334;23.876;2022-08-01T01:53:35;56173.94;;;-140.56;78.03
10482;BME280;5288;42.334;23.876;2022-08-01T01:56:03;56189.75;;;-140.56;77.91
10482;BME280;5288;42.334;23.876;2022-08-01T01:58:32;56183.81;;;-140.56;77.77
10482;BME280;5288;42.334;23.876;2022-08-01T02:01:01;56160.13;;;-140.56;77.79
10482;BME280;5288;42.334;23.876;2022-08-01T02:03:31;56197.66;;;-140.56;78.47
10482;BME280;5288;42.334;23.876;2022-08-01T02:06:02;56162.09;;;-140.56;78.81
10482;BME280;5288;42.334;23.876;2022-08-01T02:08:31;56189.75;;;-140.56;78.62
10482;BME280;5288;42.334;23.876;2022-08-01T02:11:00;56162.09;;;-140.56;78.69
10482;BME280;5288;42.334;23.876;2022-08-01T02:13:52;56193.72;;;-140.56;78.68
10482;BME280;5288;42.334;23.876;2022-08-01T02:16:21;56162.09;;;-140.56;79.00
10482;BME280;5288;42.334;23.876;2022-08-01T02:18:51;56191.72;;;-140.56;79.31
10482;BME280;5288;42.334;23.876;2022-08-01T02:21:22;56177.91;;;-140.56;79.17
10482;BME280;5288;42.334;23.876;2022-08-01T02:23:51;56217.41;;;-140.56;79.07
10482;BME280;5288;42.334;23.876;2022-08-01T02:26:22;56185.81;;;-140.56;79.34
10482;BME280;5288;42.334;23.876;2022-08-01T02:28:54;56177.91;;;-140.56;79.59
10482;BME280;5288;42.334;23.876;2022-08-01T02:31:23;56201.63;;;-140.56;79.62
10482;BME280;5288;42.334;23.876;2022-08-01T02:33:56;56181.84;;;-140.56;79.57
10482;BME280;5288;42.334;23.876;2022-08-01T02:36:26;56168.00;;;-140.56;79.71
10482;BME280;5288;42.334;23.876;2022-08-01T02:38:54;56209.50;;;-140.56;80.27
10482;BME280;5288;42.334;23.876;2022-08-01T02:41:23;56197.66;;;-140.56;80.13
10482;BME280;5288;42.334;23.876;2022-08-01T02:43:56;56187.78;;;-140.56;80.00
10482;BME280;5288;42.334;23.876;2022-08-01T02:46:30;56213.47;;;-140.56;80.23
10482;BME280;5288;42.334;23.876;2022-08-01T02:49:03;56231.25;;;-140.56;79.73
10482;BME280;5288;42.334;23.876;2022-08-01T02:51:33;56211.50;;;-140.56;79.54
10482;BME280;5288;42.334;23.876;2022-08-01T02:54:03;56211.50;;;-140.56;79.48
10482;BME280;5288;42.334;23.876;2022-08-01T02:56:32;56219.41;;;-140.56;79.16
10482;BME280;5288;42.334;23.876;2022-08-01T02:59:04;56199.63;;;-140.56;79.17
10482;BME280;5288;42.334;23.876;2022-08-01T03:01:33;56148.25;;;-140.56;78.75
10482;BME280;5288;42.334;23.876;2022-08-01T03:04:03;56185.81;;;-140.56;78.45
10482;BME280;5288;42.334;23.876;2022-08-01T03:06:31;56189.75;;;-140.56;77.99
10482;BME280;5288;42.334;23.876;2022-08-01T03:09:01;56197.66;;;-140.56;77.71
10482;BME280;5288;42.334;23.876;2022-08-01T03:11:29;56205.56;;;-140.56;77.50
10482;BME280;5288;42.334;23.876;2022-08-01T03:14:00;56191.72;;;-140.56;77.34
10482;BME280;5288;42.334;23.876;2022-08-01T03:16:30;56175.91;;;-140.56;76.62
10482;BME280;5288;42.334;23.876;2022-08-01T03:19:01;56183.81;;;-140.56;76.11
10482;BME280;5288;42.334;23.876;2022-08-01T03:21:31;56199.63;;;-140.56;75.62
10482;BME280;5288;42.334;23.876;2022-08-01T03:24:01;56197.66;;;-140.56;75.31
10482;BME280;5288;42.334;23.876;2022-08-01T03:26:32;56150.22;;;-140.56;74.99
10482;BME280;5288;42.334;23.876;2022-08-01T03:29:04;56197.66;;;-140.56;74.79
10482;BME280;5288;42.334;23.876;2022-08-01T03:31:34;56168.00;;;-140.56;74.26
10482;BME280;5288;42.334;23.876;2022-08-01T03:34:04;56201.63;;;-140.56;74.11
10482;BME280;5288;42.334;23.876;2022-08-01T03:36:32;56201.63;;;-140.56;73.85
10482;BME280;5288;42.334;23.876;2022-08-01T03:39:02;56183.81;;;-140.56;73.90
10482;BME280;5288;42.334;23.876;2022-08-01T03:41:35;56170.00;;;-140.56;73.50
10482;BME280;5288;42.334;23.876;2022-08-01T03:44:07;56195.69;;;-140.56;73.42
10482;BME280;5288;42.334;23.876;2022-08-01T03:46:42;56187.78;;;-140.56;72.85
10482;BME280;5288;42.334;23.876;2022-08-01T03:49:17;56168.00;;;-140.56;72.28
10482;BME280;5288;42.334;23.876;2022-08-01T03:51:46;56191.72;;;-140.56;69.51
10482;BME280;5288;42.334;23.876;2022-08-01T03:54:16;56162.09;;;-140.56;67.36
10482;BME280;5288;42.334;23.876;2022-08-01T03:56:46;56146.28;;;-140.56;66.48
10482;BME280;5288;42.334;23.876;2022-08-01T03:59:16;56171.97;;;-140.56;65.43
10482;BME280;5288;42.334;23.876;2022-08-01T04:01:44;56166.03;;;-140.56;65.52
10482;BME280;5288;42.334;23.876;2022-08-01T04:04:13;56183.81;;;-140.56;65.04
10482;BME280;5288;42.334;23.876;2022-08-01T04:06:41;56173.94;;;-140.56;62.87
10482;BME280;5288;42.334;23.876;2022-08-01T04:09:10;56142.31;;;-140.56;59.24
10482;BME280;5288;42.334;23.876;2022-08-01T04:11:38;56132.44;;;-140.56;58.64
10482;BME280;5288;42.334;23.876;2022-08-01T04:14:05;56156.16;;;-140.56;58.76
10482;BME280;5288;42.334;23.876;2022-08-01T04:16:32;56128.50;;;-140.56;57.85
10482;BME280;5288;42.334;23.876;2022-08-01T04:19:00;56138.38;;;-140.56;57.45
10482;BME280;5288;42.334;23.876;2022-08-01T04:21:31;56126.50;;;-140.56;56.83
10482;BME280;5288;42.334;23.876;2022-08-01T04:24:01;56110.72;;;-140.56;57.58
10482;BME280;5288;42.334;23.876;2022-08-01T04:26:32;56142.31;;;-140.56;55.13
10482;BME280;5288;42.334;23.876;2022-08-01T04:29:00;56108.72;;;-140.56;54.19
10482;BME280;5288;42.334;23.876;2022-08-01T04:31:30;56087.00;;;-140.56;53.62
10482;BME280;5288;42.334;23.876;2022-08-01T04:33:59;56106.75;;;-140.56;53.26
10482;BME280;5288;42.334;23.876;2022-08-01T04:36:30;56092.91;;;-140.56;52.61
10482;BME280;5288;42.334;23.876;2022-08-01T04:39:05;56073.16;;;-140.56;52.78
10482;BME280;5288;42.334;23.876;2022-08-01T04:41:36;56092.91;;;-140.56;51.72
10482;BME280;5288;42.334;23.876;2022-08-01T04:44:04;56083.03;;;-140.56;51.14
10482;BME280;5288;42.334;23.876;2022-08-01T04:46:33;56075.13;;;-140.56;51.30
10482;BME280;5288;42.334;23.876;2022-08-01T04:49:02;56075.13;;;-140.56;50.57
10482;BME280;5288;42.334;23.876;2022-08-01T04:51:33;56087.00;;;-140.56;49.06
10482;BME280;5288;42.334;23.876;2022-08-01T04:54:00;56057.34;;;-140.56;49.87
10482;BME280;5288;42.334;23.876;2022-08-01T04:56:28;56057.34;;;-140.56;50.05
10482;BME280;5288;42.334;23.876;2022-08-01T04:58:55;56053.41;;;-140.56;50.07
10482;BME280;5288;42.334;23.876;2022-08-01T05:01:36;56098.84;;;-140.56;49.19
10482;BME280;5288;42.334;23.876;2022-08-01T05:04:04;56047.47;;;-140.56;49.32
10482;BME280;5288;42.334;23.876;2022-08-01T05:06:32;56075.13;;;-140.56;49.48
10482;BME280;5288;42.334;23.876;2022-08-01T05:09:00;56039.56;;;-140.56;49.20
10482;BME280;5288;42.334;23.876;2022-08-01T05:11:27;56051.41;;;-140.56;48.43
10482;BME280;5288;42.334;23.876;2022-08-01T05:13:54;56065.25;;;-140.56;47.67
10482;BME280;5288;42.334;23.876;2022-08-01T05:16:21;56021.78;;;-140.56;48.45
10482;BME280;5288;42.334;23.876;2022-08-01T05:18:48;56061.31;;;-140.56;48.28
10482;BME280;5288;42.334;23.876;2022-08-01T05:21:15;56041.53;;;-140.56;47.74
10482;BME280;5288;42.334;23.876;2022-08-01T05:23:43;56007.94;;;-140.56;47.54
10482;BME280;5288;42.334;23.876;2022-08-01T05:26:11;56037.59;;;-140.56;46.92
10482;BME280;5288;42.334;23.876;2022-08-01T05:28:39;56017.81;;;-140.56;47.51
10482;BME280;5288;42.334;23.876;2022-08-01T05:31:06;56019.81;;;-140.56;47.90
10482;BME280;5288;42.334;23.876;2022-08-01T05:33:33;56027.72;;;-140.56;46.82
10482;BME280;5288;42.334;23.876;2022-08-01T05:36:00;56029.69;;;-140.56;47.41
10482;BME280;5288;42.334;23.876;2022-08-01T05:38:27;56017.81;;;-140.56;48.22
10482;BME280;5288;42.334;23.876;2022-08-01T05:40:56;56015.84;;;-140.56;46.90
10482;BME280;5288;42.334;23.876;2022-08-01T05:43:23;56004.00;;;-140.56;46.45
10482;BME280;5288;42.334;23.876;2022-08-01T05:45:50;55980.28;;;-140.56;47.29
10482;BME280;5288;42.334;23.876;2022-08-01T05:48:17;55976.31;;;-140.56;46.43
10482;BME280;5288;42.334;23.876;2022-08-01T05:50:45;55990.16;;;-140.56;46.18
10482;BME280;5288;42.334;23.876;2022-08-01T05:53:14;56023.75;;;-140.56;47.21
10482;BME280;5288;42.334;23.876;2022-08-01T05:55:41;56000.03;;;-140.56;46.61
10482;BME280;5288;42.334;23.876;2022-08-01T05:58:11;55992.13;;;-140.56;46.27
10482;BME280;5288;42.334;23.876;2022-08-01T06:00:38;56002.00;;;-140.56;46.19
10482;BME280;5288;42.334;23.876;2022-08-01T06:03:05;55986.22;;;-140.56;45.84
10482;BME280;5288;42.334;23.876;2022-08-01T06:05:32;55988.19;;;-140.56;45.53
10482;BME280;5288;42.334;23.876;2022-08-01T06:08:01;55984.22;;;-140.56;45.77
10482;BME280;5288;42.334;23.876;2022-08-01T06:10:29;55972.38;;;-140.56;45.31
10482;BME280;5288;42.334;23.876;2022-08-01T06:12:56;55976.31;;;-140.56;45.14
10482;BME280;5288;42.334;23.876;2022-08-01T06:15:25;55952.63;;;-140.56;45.21
10482;BME280;5288;42.334;23.876;2022-08-01T06:17:52;55926.94;;;-140.56;45.77
10482;BME280;5288;42.334;23.876;2022-08-01T06:20:19;55954.59;;;-140.56;44.67
10482;BME280;5288;42.334;23.876;2022-08-01T06:22:47;55958.53;;;-140.56;43.13
10482;BME280;5288;42.334;23.876;2022-08-01T06:25:14;55966.44;;;-140.56;45.18
10482;BME280;5288;42.334;23.876;2022-08-01T06:27:41;55926.94;;;-140.56;44.62
10482;BME280;5288;42.334;23.876;2022-08-01T06:30:09;55932.84;;;-140.56;43.87
10482;BME280;5288;42.334;23.876;2022-08-01T06:32:37;55954.59;;;-140.56;42.61
10482;BME280;5288;42.334;23.876;2022-08-01T06:35:05;55926.94;;;-140.56;41.68
10482;BME280;5288;42.334;23.876;2022-08-01T06:37:32;55934.81;;;-140.56;42.00
10482;BME280;5288;42.334;23.876;2022-08-01T06:40:00;55954.59;;;-140.56;40.83
10482;BME280;5288;42.334;23.876;2022-08-01T06:42:28;55948.66;;;-140.56;40.53
10482;BME280;5288;42.334;23.876;2022-08-01T06:44:57;55926.94;;;-140.56;41.32
10482;BME280;5288;42.334;23.876;2022-08-01T06:47:24;55921.00;;;-140.56;40.72
10482;BME280;5288;42.334;23.876;2022-08-01T06:49:52;55905.19;;;-140.56;40.86
10482;BME280;5288;42.334;23.876;2022-08-01T06:52:19;55946.69;;;-140.56;41.21
10482;BME280;5288;42.334;23.876;2022-08-01T06:54:46;55915.06;;;-140.56;41.09
10482;BME280;5288;42.334;23.876;2022-08-01T06:57:13;55919.03;;;-140.56;40.18
10482;BME280;5288;42.334;23.876;2022-08-01T06:59:41;55909.13;;;-140.56;40.64
10482;BME280;5288;42.334;23.876;2022-08-01T07:02:09;55932.84;;;-140.56;40.27
10482;BME280;5288;42.334;23.876;2022-08-01T07:04:36;55917.03;;;-140.56;40.71
10482;BME280;5288;42.334;23.876;2022-08-01T07:07:05;55899.25;;;-140.56;40.02
10482;BME280;5288;42.334;23.876;2022-08-01T07:09:32;55901.22;;;-140.56;41.14
10482;BME280;5288;42.334;23.876;2022-08-01T07:11:59;55932.84;;;-140.56;40.96
10482;BME280;5288;42.334;23.876;2022-08-01T07:14:27;55895.31;;;-140.56;40.19
10482;BME280;5288;42.334;23.876;2022-08-01T07:16:54;55917.03;;;-140.56;41.48
10482;BME280;5288;42.334;23.876;2022-08-01T07:19:21;55915.06;;;-140.56;41.07
10482;BME280;5288;42.334;23.876;2022-08-01T07:21:48;55879.50;;;-140.56;40.04
10482;BME280;5288;42.334;23.876;2022-08-01T07:24:17;55903.22;;;-140.56;39.31
10482;BME280;5288;42.334;23.876;2022-08-01T07:26:51;55919.03;;;-140.56;40.38
10482;BME280;5288;42.334;23.876;2022-08-01T07:29:20;55903.22;;;-140.56;39.70
10482;BME280;5288;42.334;23.876;2022-08-01T07:31:47;55928.91;;;-140.56;39.60
10482;BME280;5288;42.334;23.876;2022-08-01T07:34:14;55901.22;;;-140.56;40.76
10482;BME280;5288;42.334;23.876;2022-08-01T07:36:42;55911.13;;;-140.56;40.04
10482;BME280;5288;42.334;23.876;2022-08-01T07:39:09;55926.94;;;-140.56;40.60
10482;BME280;5288;42.334;23.876;2022-08-01T07:41:38;55897.28;;;-140.56;38.90
10482;BME280;5288;42.334;23.876;2022-08-01T07:44:05;55911.13;;;-140.56;39.70
10482;BME280;5288;42.334;23.876;2022-08-01T07:46:32;55869.63;;;-140.56;38.35
10482;BME280;5288;42.334;23.876;2022-08-01T07:48:59;55907.16;;;-140.56;38.45
10482;BME280;5288;42.334;23.876;2022-08-01T07:51:27;55891.34;;;-140.56;38.59
10482;BME280;5288;42.334;23.876;2022-08-01T07:53:54;55881.47;;;-140.56;38.57
10482;BME280;5288;42.334;23.876;2022-08-01T07:56:21;55863.69;;;-140.56;38.38
10482;BME280;5288;42.334;23.876;2022-08-01T07:58:52;55861.72;;;-140.56;37.89
10482;BME280;5288;42.334;23.876;2022-08-01T08:01:19;55869.63;;;-140.56;38.74
10482;BME280;5288;42.334;23.876;2022-08-01T08:03:46;55859.75;;;-140.56;38.46
10482;BME280;5288;42.334;23.876;2022-08-01T08:06:13;55859.75;;;-140.56;38.71
10482;BME280;5288;42.334;23.876;2022-08-01T08:08:41;55863.69;;;-140.56;38.74
10482;BME280;5288;42.334;23.876;2022-08-01T08:11:08;55879.50;;;-140.56;38.75
10482;BME280;5288;42.334;23.876;2022-08-01T08:13:35;55879.50;;;-140.56;38.42
10482;BME280;5288;42.334;23.876;2022-08-01T08:16:04;55883.44;;;-140.56;38.53
10482;BME280;5288;42.334;23.876;2022-08-01T08:18:31;55865.66;;;-140.56;38.25
10482;BME280;5288;42.334;23.876;2022-08-01T08:20:58;55873.56;;;-140.56;38.15
10482;BME280;5288;42.334;23.876;2022-08-01T08:23:26;55851.84;;;-140.56;38.54
10482;BME280;5288;42.334;23.876;2022-08-01T08:26:10;55839.97;;;-140.56;38.54
10482;BME280;5288;42.334;23.876;2022-08-01T08:28:37;55857.75;;;-140.56;37.12
10482;BME280;5288;42.334;23.876;2022-08-01T08:31:06;55871.59;;;-140.56;37.47
10482;BME280;5288;42.334;23.876;2022-08-01T08:33:33;55802.44;;;-140.56;38.13
10482;BME280;5288;42.334;23.876;2022-08-01T08:36:00;55871.59;;;-140.56;37.04
10482;BME280;5288;42.334;23.876;2022-08-01T08:38:27;55857.75;;;-140.56;37.78
10482;BME280;5288;42.334;23.876;2022-08-01T08:40:55;55845.91;;;-140.56;37.22
10482;BME280;5288;42.334;23.876;2022-08-01T08:43:23;55845.91;;;-140.56;37.71
10482;BME280;5288;42.334;23.876;2022-08-01T08:45:52;55865.66;;;-140.56;37.49
10482;BME280;5288;42.334;23.876;2022-08-01T08:48:21;55851.84;;;-140.56;36.72
10482;BME280;5288;42.334;23.876;2022-08-01T08:50:50;55820.22;;;-140.56;36.93
10482;BME280;5288;42.334;23.876;2022-08-01T08:53:18;55873.56;;;-140.56;37.27
10482;BME280;5288;42.334;23.876;2022-08-01T08:55:46;55851.84;;;-140.56;38.09
10482;BME280;5288;42.334;23.876;2022-08-01T08:58:15;55855.78;;;-140.56;36.83
10482;BME280;5288;42.334;23.876;2022-08-01T09:00:44;55834.06;;;-140.56;36.86
10482;BME280;5288;42.334;23.876;2022-08-01T09:03:12;55865.66;;;-140.56;36.51
10482;BME280;5288;42.334;23.876;2022-08-01T09:05:41;55818.25;;;-140.56;38.15
10482;BME280;5288;42.334;23.876;2022-08-01T09:08:08;55818.25;;;-140.56;37.61
10482;BME280;5288;42.334;23.876;2022-08-01T09:10:36;55812.31;;;-140.56;36.45
10482;BME280;5288;42.334;23.876;2022-08-01T09:13:05;55871.59;;;-140.56;37.64
10482;BME280;5288;42.334;23.876;2022-08-01T09:15:41;55820.22;;;-140.56;37.01
10482;BME280;5288;42.334;23.876;2022-08-01T09:18:09;55786.63;;;-140.56;36.99
10482;BME280;5288;42.334;23.876;2022-08-01T09:21:07;55800.47;;;-140.56;36.70
10482;BME280;5288;42.334;23.876;2022-08-01T09:23:36;55796.50;;;-140.56;35.49
10482;BME280;5288;42.334;23.876;2022-08-01T09:26:05;55780.69;;;-140.56;35.93
10482;BME280;5288;42.334;23.876;2022-08-01T09:28:36;55772.78;;;-140.56;34.96
10482;BME280;5288;42.334;23.876;2022-08-01T09:31:08;55816.25;;;-140.56;35.93
10482;BME280;5288;42.334;23.876;2022-08-01T09:33:52;55780.69;;;-140.56;35.67
10482;BME280;5288;42.334;23.876;2022-08-01T09:36:23;55776.75;;;-140.56;36.03
10482;BME280;5288;42.334;23.876;2022-08-01T09:38:56;55839.97;;;-140.56;35.90
10482;BME280;5288;42.334;23.876;2022-08-01T09:41:29;55772.78;;;-140.56;36.33
10482;BME280;5288;42.334;23.876;2022-08-01T09:43:57;55788.59;;;-140.56;37.29
10482;BME280;5288;42.334;23.876;2022-08-01T09:46:25;55800.47;;;-140.56;36.03
10482;BME280;5288;42.334;23.876;2022-08-01T09:48:57;55814.28;;;-140.56;36.49
10482;BME280;5288;42.334;23.876;2022-08-01T09:51:30;55784.66;;;-140.56;35.98
10482;BME280;5288;42.334;23.876;2022-08-01T09:54:02;55806.38;;;-140.56;36.48
10482;BME280;5288;42.334;23.876;2022-08-01T09:56:38;55794.53;;;-140.56;35.60
10482;BME280;5288;42.334;23.876;2022-08-01T09:59:07;55816.25;;;-140.56;36.58
10482;BME280;5288;42.334;23.876;2022-08-01T10:01:46;55798.47;;;-140.56;36.65
10482;BME280;5288;42.334;23.876;2022-08-01T10:04:15;55788.59;;;-140.56;35.23
10482;BME280;5288;42.334;23.876;2022-08-01T10:06:45;55778.72;;;-140.56;36.49
10482;BME280;5288;42.334;23.876;2022-08-01T10:09:15;55800.47;;;-140.56;36.42
10482;BME280;5288;42.334;23.876;2022-08-01T10:11:55;55747.09;;;-140.56;35.72
10482;BME280;5288;42.334;23.876;2022-08-01T10:14:25;55806.38;;;-140.56;36.23
10482;BME280;5288;42.334;23.876;2022-08-01T10:17:06;55772.78;;;-140.56;36.14
10482;BME280;5288;42.334;23.876;2022-08-01T10:19:35;55766.88;;;-140.56;34.76
10482;BME280;5288;42.334;23.876;2022-08-01T10:22:08;55753.03;;;-140.56;35.62
10482;BME280;5288;42.334;23.876;2022-08-01T10:24:47;55774.75;;;-140.56;35.99
10482;BME280;5288;42.334;23.876;2022-08-01T10:27:16;55798.47;;;-140.56;36.52
10482;BME280;5288;42.334;23.876;2022-08-01T10:29:47;55745.13;;;-140.56;34.85
10482;BME280;5288;42.334;23.876;2022-08-01T10:32:17;55774.75;;;-140.56;35.28
10482;BME280;5288;42.334;23.876;2022-08-01T10:34:45;55755.00;;;-140.56;35.37
10482;BME280;5288;42.334;23.876;2022-08-01T10:37:14;55741.19;;;-140.56;34.66
10482;BME280;5288;42.334;23.876;2022-08-01T10:39:43;55756.97;;;-140.56;34.38
10482;BME280;5288;42.334;23.876;2022-08-01T10:42:11;55786.63;;;-140.56;34.14
10482;BME280;5288;42.334;23.876;2022-08-01T10:44:39;55755.00;;;-140.56;35.00
10482;BME280;5288;42.334;23.876;2022-08-01T10:47:13;55743.16;;;-140.56;35.43
10482;BME280;5288;42.334;23.876;2022-08-01T10:49:44;55727.34;;;-140.56;35.00
10482;BME280;5288;42.334;23.876;2022-08-01T10:52:17;55727.34;;;-140.56;34.26
10482;BME280;5288;42.334;23.876;2022-08-01T10:54:45;55745.13;;;-140.56;36.29
10482;BME280;5288;42.334;23.876;2022-08-01T10:57:12;55739.19;;;-140.56;34.57
10482;BME280;5288;42.334;23.876;2022-08-01T10:59:48;55713.50;;;-140.56;34.53
10482;BME280;5288;42.334;23.876;2022-08-01T11:02:31;55705.59;;;-140.56;34.32
10482;BME280;5288;42.334;23.876;2022-08-01T11:05:02;55711.53;;;-140.56;33.76
10482;BME280;5288;42.334;23.876;2022-08-01T11:07:43;55741.19;;;-140.56;34.96
10482;BME280;5288;42.334;23.876;2022-08-01T11:10:21;55731.28;;;-140.56;34.47
10482;BME280;5288;42.334;23.876;2022-08-01T11:12:49;55717.47;;;-140.56;34.36
10482;BME280;5288;42.334;23.876;2022-08-01T11:15:22;55762.91;;;-140.56;34.42
10482;BME280;5288;42.334;23.876;2022-08-01T11:17:54;55758.97;;;-140.56;34.97
10482;BME280;5288;42.334;23.876;2022-08-01T11:20:23;55760.94;;;-140.56;34.08
10482;BME280;5288;42.334;23.876;2022-08-01T11:23:25;55741.19;;;-140.56;33.89
10482;BME280;5288;42.334;23.876;2022-08-01T11:26:10;55741.19;;;-140.56;35.45
10482;BME280;5288;42.334;23.876;2022-08-01T11:28:38;55749.06;;;-140.56;34.20
10482;BME280;5288;42.334;23.876;2022-08-01T11:31:28;55733.28;;;-140.56;35.22
10482;BME280;5288;42.334;23.876;2022-08-01T11:33:55;55780.69;;;-140.56;33.76
10482;BME280;5288;42.334;23.876;2022-08-01T11:36:22;55741.19;;;-140.56;34.13
10482;BME280;5288;42.334;23.876;2022-08-01T11:39:11;55745.13;;;-140.56;34.18
10482;BME280;5288;42.334;23.876;2022-08-01T11:41:39;55737.22;;;-140.56;34.52
10482;BME280;5288;42.334;23.876;2022-08-01T11:44:07;55729.31;;;-140.56;33.95
10482;BME280;5288;42.334;23.876;2022-08-01T11:46:53;55713.50;;;-140.56;34.63
10482;BME280;5288;42.334;23.876;2022-08-01T11:52:26;55709.56;;;-140.56;34.30
10482;BME280;5288;42.334;23.876;2022-08-01T11:54:56;55679.91;;;-140.56;33.10
10482;BME280;5288;42.334;23.876;2022-08-01T11:57:26;55689.81;;;-140.56;33.02
10482;BME280;5288;42.334;23.876;2022-08-01T11:59:57;55681.91;;;-140.56;33.46
10482;BME280;5288;42.334;23.876;2022-08-01T12:02:26;55660.16;;;-140.56;33.00
10482;BME280;5288;42.334;23.876;2022-08-01T12:04:55;55656.22;;;-140.56;32.26
10482;BME280;5288;42.334;23.876;2022-08-01T12:07:23;55711.53;;;-140.56;33.05
10482;BME280;5288;42.334;23.876;2022-08-01T12:09:59;55695.72;;;-140.56;34.12
10482;BME280;5288;42.334;23.876;2022-08-01T12:12:27;55685.84;;;-140.56;33.91
10482;BME280;5288;42.334;23.876;2022-08-01T12:14:56;55660.16;;;-140.56;32.37
10482;BME280;5288;42.334;23.876;2022-08-01T12:17:34;55666.09;;;-140.56;32.17
10482;BME280;5288;42.334;23.876;2022-08-01T12:20:03;55691.78;;;-140.56;32.57
10482;BME280;5288;42.334;23.876;2022-08-01T12:22:31;55693.75;;;-140.56;32.28
10482;BME280;5288;42.334;23.876;2022-08-01T12:25:06;55715.50;;;-140.56;32.43
10482;BME280;5288;42.334;23.876;2022-08-01T12:27:35;55701.66;;;-140.56;32.93
10482;BME280;5288;42.334;23.876;2022-08-01T12:30:05;55650.28;;;-140.56;32.34
10482;BME280;5288;42.334;23.876;2022-08-01T12:32:34;55670.03;;;-140.56;32.35
10482;BME280;5288;42.334;23.876;2022-08-01T12:35:04;55670.03;;;-140.56;32.55
10482;BME280;5288;42.334;23.876;2022-08-01T12:37:32;55685.84;;;-140.56;32.58
10482;BME280;5288;42.334;23.876;2022-08-01T12:40:13;55660.16;;;-140.56;32.46
10482;BME280;5288;42.334;23.876;2022-08-01T12:42:43;55674.00;;;-140.56;31.33
10482;BME280;5288;42.334;23.876;2022-08-01T12:45:13;55640.41;;;-140.56;31.48
10482;BME280;5288;42.334;23.876;2022-08-01T12:47:41;55638.41;;;-140.56;31.09
10482;BME280;5288;42.334;23.876;2022-08-01T12:50:12;55598.91;;;-140.56;30.96
10482;BME280;5288;42.334;23.876;2022-08-01T12:52:40;55622.63;;;-140.56;31.55
10482;BME280;5288;42.334;23.876;2022-08-01T12:55:14;55606.81;;;-140.56;30.10
10482;BME280;5288;42.334;23.876;2022-08-01T12:57:44;55602.84;;;-140.56;30.23